Terminal Aerodrome Forecast
Issued by NWS

Home | Current Version | Previous Version | Text Only | Print | Product List | Glossary On
Versions: 1 2 3 4 5 6 7 8 9 10 11 12 13
000
FTUS46 KSEW 271700
TAFCLM
TAF
KCLM 271733Z 2718/2818 30004KT P6SM SKC
     FM280000 30010KT P6SM SCT060 SCT250
     FM280300 29007KT P6SM SCT035
     FM280600 28006KT P6SM OVC025
     FM281200 29004KT P6SM BKN015 OVC025=

USA.gov is the U.S. government's official web portal to all federal, state and local government web resources and services.